KCPR/CPR METAR and TAF weather

Enter ICAO airport designator
Station Type Date Time Source
KCPR METAR 2021/07/29 01:53 UTC NOAA

KCPR 290153Z 36022G31KT 7SM CLR 27/07 A3017 RMK AO2 PK WND 01034/0111 SLP139 T02720072


Station Type Date Time Source
KCPR Decoded METAR 2021/07/29 01:53 UTC NOAA

NATRONA COUNTY INTERNATIONAL AIRPORT , WY, United States (KCPR) 42-54N 106-28W 1621M
Jul 28, 2021 - 09:53 PM EDT / 2021.07.29 0153 UTC
Wind: from the N (360 degrees) at 25 MPH (22 KT) gusting to 36 MPH (31 KT):0
Visibility: 7 mile(s):0
Sky conditions: clear
Temperature: 81.0 F (27.2 C)
Dew Point: 45.0 F (7.2 C)
Relative Humidity: 28%
Pressure (altimeter): 30.17 in. Hg (1021 hPa)
ob: KCPR 290153Z 36022G31KT 7SM CLR 27/07 A3017 RMK AO2 PK WND 01034/0111 SLP139 T02720072
cycle: 2

Station Type Date Time Source
KCPR TAF 2021/07/29 02:36 UTC NOAA

TAF
AMD KCPR 290133Z 2902/2924 01015G25KT 6SM FU FEW120 BKN150
FM290700 05012G20KT P6SM BKN120
FM291300 10015G25KT P6SM OVC120
FM292200 VRB10G20KT P6SM VCTS BKN120CB

Example: see airport list